createdAt,value
2023-04-12T00:00:02.078Z,3.67
2023-04-12T00:02:29.668Z,5.23
2023-04-12T00:04:57.994Z,7.53
2023-04-12T00:07:25.714Z,5.33
2023-04-12T00:09:53.282Z,7.40
2023-04-12T00:12:20.758Z,5.17
2023-04-12T00:14:48.540Z,2.70
2023-04-12T00:17:19.038Z,3.10
2023-04-12T00:19:47.609Z,6.93
2023-04-12T00:22:15.973Z,6.37
2023-04-12T00:24:43.653Z,5.83
2023-04-12T00:27:11.197Z,7.37
2023-04-12T00:29:38.640Z,5.53
2023-04-12T00:32:06.397Z,6.23
2023-04-12T00:34:35.169Z,6.13
2023-04-12T00:37:03.029Z,6.40
2023-04-12T00:39:30.608Z,10.23
2023-04-12T00:41:58.009Z,11.33
2023-04-12T00:44:25.549Z,4.73
2023-04-12T00:46:53.098Z,6.10
2023-04-12T00:49:20.616Z,9.57
2023-04-12T00:51:49.455Z,10.77
2023-04-12T00:54:18.119Z,8.77
2023-04-12T00:56:47.215Z,6.03
2023-04-12T00:59:15.340Z,2.37
2023-04-12T01:01:42.815Z,4.67
2023-04-12T01:04:14.108Z,4.97
2023-04-12T01:06:51.889Z,6.73
2023-04-12T01:09:27.338Z,6.27
2023-04-12T01:12:02.739Z,6.37
2023-04-12T01:14:33.371Z,6.60
2023-04-12T01:17:03.923Z,5.23
2023-04-12T01:19:38.094Z,5.90
2023-04-12T01:22:13.308Z,8.23
2023-04-12T01:24:48.937Z,4.03
2023-04-12T01:27:39.956Z,5.70
2023-04-12T01:30:09.186Z,4.93
2023-04-12T01:32:38.284Z,4.83
2023-04-12T01:35:08.772Z,3.40
2023-04-12T01:37:37.123Z,5.73
2023-04-12T01:40:05.896Z,4.73
2023-04-12T01:42:34.707Z,5.87
2023-04-12T01:45:02.320Z,3.63
2023-04-12T01:47:29.953Z,4.87
2023-04-12T01:50:00.562Z,4.93
2023-04-12T01:52:31.113Z,4.03
2023-04-12T01:54:59.539Z,7.07
2023-04-12T01:57:27.901Z,5.50
2023-04-12T01:59:58.406Z,5.70
2023-04-12T02:02:26.832Z,3.73
2023-04-12T02:04:55.289Z,5.13
2023-04-12T02:07:22.992Z,8.57
2023-04-12T02:09:50.612Z,5.60
2023-04-12T02:12:18.097Z,7.97
2023-04-12T02:14:45.860Z,2.57
2023-04-12T02:17:14.784Z,3.03
2023-04-12T02:19:42.253Z,4.30
2023-04-12T02:22:09.675Z,1.60
2023-04-12T02:24:37.172Z,3.87
2023-04-12T02:27:04.780Z,4.37
2023-04-12T02:29:32.522Z,4.83
2023-04-12T02:31:59.983Z,3.00
2023-04-12T02:34:34.408Z,3.40
2023-04-12T02:37:01.914Z,4.30
2023-04-12T02:39:32.347Z,3.97
2023-04-12T02:41:59.930Z,3.20
2023-04-12T02:44:29.873Z,4.70
2023-04-12T02:46:57.351Z,3.23
2023-04-12T02:49:24.755Z,5.10
2023-04-12T02:51:53.833Z,6.53
2023-04-12T02:54:21.249Z,5.27
2023-04-12T02:56:48.713Z,3.23
2023-04-12T02:59:16.183Z,5.77
2023-04-12T03:01:46.695Z,3.13
2023-04-12T03:04:14.562Z,4.00
2023-04-12T03:06:52.296Z,2.83
2023-04-12T03:09:21.941Z,3.33
2023-04-12T03:11:49.358Z,3.90
2023-04-12T03:14:17.157Z,4.10
2023-04-12T03:16:44.581Z,3.40
2023-04-12T03:19:11.961Z,3.90
2023-04-12T03:21:39.380Z,1.60
2023-04-12T03:24:07.048Z,3.53
2023-04-12T03:26:36.044Z,2.00
2023-04-12T03:29:05.975Z,2.30
2023-04-12T03:31:33.632Z,2.67
2023-04-12T03:34:01.217Z,3.33
2023-04-12T03:36:29.506Z,3.00
2023-04-12T03:38:57.052Z,4.90
2023-04-12T03:41:24.590Z,4.13
2023-04-12T03:43:53.414Z,4.33
2023-04-12T03:46:20.933Z,3.40
2023-04-12T03:48:48.437Z,2.93
2023-04-12T03:51:16.450Z,4.10
2023-04-12T03:53:44.459Z,5.23
2023-04-12T03:56:12.591Z,3.40
2023-04-12T03:58:40.062Z,4.60
2023-04-12T04:01:09.254Z,2.00
2023-04-12T04:03:36.896Z,2.10
2023-04-12T04:06:04.711Z,4.17
2023-04-12T04:08:33.090Z,2.90
2023-04-12T04:11:01.169Z,4.50
2023-04-12T04:13:28.614Z,2.00
2023-04-12T04:16:00.220Z,3.90
2023-04-12T04:18:29.049Z,4.93
2023-04-12T04:20:56.752Z,3.80
2023-04-12T04:23:24.223Z,3.33
2023-04-12T04:25:53.341Z,6.10
2023-04-12T04:28:20.767Z,4.47
2023-04-12T04:30:48.435Z,1.90
2023-04-12T04:33:16.386Z,2.27
2023-04-12T04:35:45.361Z,4.13
2023-04-12T04:38:13.222Z,2.80
2023-04-12T04:40:40.689Z,2.60
2023-04-12T04:43:09.762Z,2.30
2023-04-12T04:45:37.293Z,6.97
2023-04-12T04:48:04.917Z,2.70
2023-04-12T04:50:32.382Z,2.23
2023-04-12T04:53:01.167Z,2.27
2023-04-12T04:55:29.620Z,2.10
2023-04-12T04:57:57.715Z,3.90
2023-04-12T05:00:25.786Z,3.23
2023-04-12T05:02:53.325Z,2.60
2023-04-12T05:05:23.381Z,2.80
2023-04-12T05:07:50.938Z,4.40
2023-04-12T05:10:19.837Z,3.20
2023-04-12T05:12:47.356Z,2.70
2023-04-12T05:15:15.101Z,2.10
2023-04-12T05:17:42.657Z,2.60
2023-04-12T05:20:11.805Z,4.10
2023-04-12T05:22:39.251Z,2.53
2023-04-12T05:25:07.295Z,3.53
2023-04-12T05:27:36.034Z,1.50
2023-04-12T05:30:04.015Z,2.90
2023-04-12T05:32:31.472Z,1.67
2023-04-12T05:34:59.086Z,1.90
2023-04-12T05:37:27.989Z,1.80
2023-04-12T05:39:55.690Z,2.50
2023-04-12T05:42:23.136Z,1.90
2023-04-12T05:44:52.093Z,2.80
2023-04-12T05:47:19.512Z,2.17
2023-04-12T05:49:46.992Z,1.80
2023-04-12T05:52:14.468Z,1.87
2023-04-12T05:54:42.997Z,2.63
2023-04-12T05:57:10.714Z,3.40
2023-04-12T05:59:38.120Z,2.30
2023-04-12T06:02:07.328Z,2.17
2023-04-12T06:04:48.791Z,1.90
2023-04-12T06:07:17.721Z,2.20
2023-04-12T06:09:45.287Z,1.50
2023-04-12T06:12:12.737Z,2.50
2023-04-12T06:14:40.363Z,2.37
2023-04-12T06:17:09.110Z,1.80
2023-04-12T06:19:36.971Z,4.33
2023-04-12T06:22:04.438Z,1.70
2023-04-12T06:24:31.954Z,1.80
2023-04-12T06:26:59.386Z,2.33
2023-04-12T06:29:26.889Z,1.97
2023-04-12T06:31:54.341Z,2.10
2023-04-12T06:34:23.128Z,2.77
2023-04-12T06:36:50.694Z,2.60
2023-04-12T06:39:18.138Z,3.57
2023-04-12T06:41:47.393Z,1.73
2023-04-12T06:44:14.794Z,3.70
2023-04-12T06:46:42.297Z,1.87
2023-04-12T06:49:09.747Z,1.60
2023-04-12T06:51:38.526Z,4.87
2023-04-12T06:54:06.216Z,4.27
2023-04-12T06:56:34.576Z,1.87
2023-04-12T06:59:02.060Z,1.80
2023-04-12T07:01:29.522Z,1.77
2023-04-12T07:03:57.184Z,1.63
2023-04-12T07:06:26.047Z,1.60
2023-04-12T07:08:55.554Z,1.83
2023-04-12T07:11:24.350Z,1.60
2023-04-12T07:13:52.052Z,2.40
2023-04-12T07:16:19.577Z,1.33
2023-04-12T07:18:47.160Z,1.20
2023-04-12T07:21:17.307Z,1.77
2023-04-12T07:23:44.738Z,1.60
2023-04-12T07:26:13.790Z,1.50
2023-04-12T07:28:41.193Z,1.43
2023-04-12T07:31:08.753Z,1.73
2023-04-12T07:33:38.767Z,1.80
2023-04-12T07:36:08.017Z,1.90
2023-04-12T07:38:35.487Z,2.00
2023-04-12T07:41:03.005Z,1.30
2023-04-12T07:43:31.783Z,1.57
2023-04-12T07:45:59.463Z,3.33
2023-04-12T07:48:26.958Z,1.47
2023-04-12T07:50:54.380Z,2.40
2023-04-12T07:53:22.756Z,3.70
2023-04-12T07:55:51.018Z,1.53
2023-04-12T07:58:18.825Z,1.70
2023-04-12T08:00:47.758Z,2.13
2023-04-12T08:03:16.044Z,1.60
2023-04-12T08:05:44.200Z,1.43
2023-04-12T08:08:11.778Z,1.50
2023-04-12T08:10:39.723Z,1.30
2023-04-12T08:13:08.932Z,1.40
2023-04-12T08:15:36.754Z,3.10
2023-04-12T08:18:05.768Z,1.00
2023-04-12T08:20:33.485Z,1.43
2023-04-12T08:23:01.278Z,2.67
2023-04-12T08:25:28.705Z,1.20
2023-04-12T08:27:56.231Z,2.60
2023-04-12T08:30:26.743Z,1.13
2023-04-12T08:32:54.410Z,1.40
2023-04-12T08:35:23.422Z,4.00
2023-04-12T08:37:51.361Z,1.10
2023-04-12T08:40:18.759Z,1.37
2023-04-12T08:42:46.621Z,1.10
2023-04-12T08:45:14.582Z,1.17
2023-04-12T08:47:42.649Z,1.23
2023-04-12T08:50:13.701Z,1.00
2023-04-12T08:52:44.772Z,1.30
2023-04-12T08:55:13.002Z,1.13
2023-04-12T08:57:41.436Z,1.17
2023-04-12T09:00:09.924Z,1.60
2023-04-12T09:02:37.913Z,1.20
2023-04-12T09:05:06.371Z,1.80
2023-04-12T09:07:34.601Z,1.00
2023-04-12T09:10:04.778Z,4.00
2023-04-12T09:12:32.394Z,1.13
2023-04-12T09:15:09.449Z,1.00
2023-04-12T09:17:38.801Z,1.13
2023-04-12T09:20:23.589Z,1.20
2023-04-12T09:22:52.690Z,1.30
2023-04-12T09:25:36.088Z,1.07
2023-04-12T09:28:04.183Z,1.30
2023-04-12T09:30:31.605Z,3.03
2023-04-12T09:33:11.335Z,2.10
2023-04-12T09:35:38.911Z,1.47
2023-04-12T09:38:09.784Z,1.20
2023-04-12T09:40:39.131Z,1.10
2023-04-12T09:43:07.259Z,1.27
2023-04-12T09:45:35.326Z,1.80
2023-04-12T09:48:02.814Z,2.40
2023-04-12T09:50:33.329Z,2.73
2023-04-12T09:53:02.053Z,1.00
2023-04-12T09:55:32.389Z,1.30
2023-04-12T09:58:04.902Z,1.00
2023-04-12T10:00:34.281Z,1.13
2023-04-12T10:03:02.940Z,1.13
2023-04-12T10:05:31.218Z,1.10
2023-04-12T10:07:58.871Z,1.30
2023-04-12T10:10:26.424Z,2.17
2023-04-12T10:12:53.980Z,1.30
2023-04-12T10:15:22.977Z,1.57
2023-04-12T10:17:52.285Z,1.53
2023-04-12T10:20:20.568Z,1.67
2023-04-12T10:22:48.974Z,2.70
2023-04-12T10:25:17.423Z,1.43
2023-04-12T10:27:45.830Z,1.40
2023-04-12T10:30:20.145Z,1.40
2023-04-12T10:32:49.866Z,1.47
2023-04-12T10:35:17.622Z,1.50
2023-04-12T10:37:58.504Z,1.60
2023-04-12T10:40:26.024Z,2.17
2023-04-12T10:43:08.365Z,1.10
2023-04-12T10:45:39.450Z,1.97
2023-04-12T10:48:08.318Z,1.00
2023-04-12T10:50:35.834Z,1.10
2023-04-12T10:53:18.221Z,0.90
2023-04-12T10:55:46.226Z,1.10
2023-04-12T10:58:33.875Z,1.23
2023-04-12T11:01:13.675Z,1.27
2023-04-12T11:03:56.329Z,1.00
2023-04-12T11:06:40.906Z,1.37
2023-04-12T11:09:08.503Z,1.27
2023-04-12T11:11:36.074Z,1.10
2023-04-12T11:14:03.522Z,1.00
2023-04-12T11:16:31.403Z,1.37
2023-04-12T11:18:59.138Z,2.07
2023-04-12T11:21:29.014Z,2.40
2023-04-12T11:23:58.207Z,1.47
2023-04-12T11:26:26.026Z,1.40
2023-04-12T11:28:55.867Z,5.60
2023-04-12T11:31:23.792Z,4.80
2023-04-12T11:33:51.348Z,1.73
2023-04-12T11:36:18.912Z,6.83
2023-04-12T11:38:48.212Z,2.50
2023-04-12T11:41:16.865Z,1.40
2023-04-12T11:43:44.586Z,2.37
2023-04-12T11:46:12.177Z,1.63
2023-04-12T11:48:39.791Z,2.07
2023-04-12T11:51:19.761Z,1.33
2023-04-12T11:53:53.082Z,1.70
2023-04-12T11:56:20.557Z,1.77
2023-04-12T11:58:48.763Z,2.70
2023-04-12T12:01:17.234Z,3.13
2023-04-12T12:03:44.860Z,5.10
2023-04-12T12:06:13.023Z,2.70
2023-04-12T12:08:40.681Z,5.33
2023-04-12T12:11:09.784Z,4.67
2023-04-12T12:13:47.670Z,3.60
2023-04-12T12:16:16.291Z,6.80
2023-04-12T12:18:44.771Z,7.00
2023-04-12T12:21:12.737Z,6.27
2023-04-12T12:23:40.281Z,3.23
2023-04-12T12:26:19.137Z,3.13
2023-04-12T12:28:50.331Z,5.60
2023-04-12T12:31:19.929Z,5.50
2023-04-12T12:33:47.903Z,3.33
2023-04-12T12:36:18.760Z,3.17
2023-04-12T12:38:46.369Z,2.57
2023-04-12T12:41:19.239Z,9.80
2023-04-12T12:43:47.119Z,2.73
2023-04-12T12:46:14.809Z,5.30
2023-04-12T12:48:42.668Z,4.30
2023-04-12T12:51:10.732Z,2.30
2023-04-12T12:53:38.468Z,3.30
2023-04-12T12:56:06.344Z,2.30
2023-04-12T12:58:35.332Z,2.10
2023-04-12T13:01:02.894Z,2.43
2023-04-12T13:03:30.676Z,2.23
2023-04-12T13:05:58.308Z,1.53
2023-04-12T13:08:26.172Z,1.37
2023-04-12T13:10:53.986Z,1.70
2023-04-12T13:13:21.564Z,3.53
2023-04-12T13:15:52.706Z,1.17
2023-04-12T13:18:23.259Z,1.27
2023-04-12T13:20:50.716Z,1.80
2023-04-12T13:23:18.204Z,2.87
2023-04-12T13:25:45.947Z,1.37
2023-04-12T13:28:13.492Z,3.53
2023-04-12T13:30:40.868Z,2.93
2023-04-12T13:33:09.921Z,2.47
2023-04-12T13:35:37.378Z,3.13
2023-04-12T13:38:04.815Z,2.30
2023-04-12T13:40:32.397Z,5.77
2023-04-12T13:42:59.805Z,3.70
2023-04-12T13:45:27.359Z,2.40
2023-04-12T13:47:54.918Z,3.23
2023-04-12T13:50:23.870Z,1.83
2023-04-12T13:52:51.818Z,6.37
2023-04-12T13:55:19.229Z,4.97
2023-04-12T13:57:47.233Z,4.37
2023-04-12T14:00:15.925Z,3.07
2023-04-12T14:02:43.608Z,3.60
2023-04-12T14:05:11.988Z,2.00
2023-04-12T14:07:41.040Z,2.60
2023-04-12T14:10:09.231Z,5.13
2023-04-12T14:12:36.861Z,1.80
2023-04-12T14:15:04.827Z,2.83
2023-04-12T14:17:33.073Z,3.50
2023-04-12T14:20:00.850Z,2.10
2023-04-12T14:22:28.416Z,2.37
2023-04-12T14:24:57.246Z,3.40
2023-04-12T14:27:24.656Z,1.93
2023-04-12T14:29:52.120Z,2.97
2023-04-12T14:32:19.693Z,3.33
2023-04-12T14:34:47.195Z,6.00
2023-04-12T14:37:14.744Z,1.70
2023-04-12T14:39:42.468Z,2.87
2023-04-12T14:42:11.328Z,4.40
2023-04-12T14:44:39.545Z,4.80
2023-04-12T14:47:07.083Z,2.40
2023-04-12T14:49:34.788Z,3.00
2023-04-12T14:52:02.600Z,3.33
2023-04-12T14:54:30.483Z,3.43
2023-04-12T14:56:57.894Z,3.57
2023-04-12T14:59:27.386Z,8.57
2023-04-12T15:01:55.004Z,5.17
2023-04-12T15:04:22.915Z,5.97
2023-04-12T15:06:50.512Z,3.67
2023-04-12T15:09:18.343Z,6.20
2023-04-12T15:12:01.057Z,4.50
2023-04-12T15:14:30.103Z,1.60
2023-04-12T15:16:57.814Z,4.30
2023-04-12T15:19:25.258Z,3.73
2023-04-12T15:21:54.938Z,4.77
2023-04-12T15:24:23.283Z,5.97
2023-04-12T15:26:52.403Z,11.07
2023-04-12T15:29:21.138Z,4.40
2023-04-12T15:31:50.387Z,5.83
2023-04-12T15:34:17.871Z,5.60
2023-04-12T15:36:46.169Z,5.97
2023-04-12T15:39:15.027Z,5.23
2023-04-12T15:41:43.419Z,2.80
2023-04-12T15:44:13.203Z,3.57
2023-04-12T15:46:40.969Z,5.00
2023-04-12T15:49:09.833Z,2.20
2023-04-12T15:51:37.315Z,5.33
2023-04-12T15:54:06.416Z,6.33
2023-04-12T15:56:35.193Z,7.40
2023-04-12T15:59:03.015Z,4.57
2023-04-12T16:01:30.761Z,4.93
2023-04-12T16:03:58.493Z,5.40
2023-04-12T16:06:28.304Z,2.83
2023-04-12T16:08:57.346Z,4.30
2023-04-12T16:11:25.256Z,4.57
2023-04-12T16:13:53.078Z,6.90
2023-04-12T16:16:22.939Z,7.67
2023-04-12T16:18:51.532Z,4.00
2023-04-12T16:21:20.287Z,9.33
2023-04-12T16:23:50.136Z,4.37
2023-04-12T16:26:21.390Z,3.50
2023-04-12T16:28:49.275Z,4.57
2023-04-12T16:31:16.928Z,4.43
2023-04-12T16:33:45.388Z,6.60
2023-04-12T16:36:14.081Z,6.30
2023-04-12T16:38:41.748Z,5.07
2023-04-12T16:41:11.151Z,11.50
2023-04-12T16:43:38.569Z,5.60
2023-04-12T16:46:06.187Z,6.00
2023-04-12T16:48:33.791Z,5.07
2023-04-12T16:51:02.216Z,2.00
2023-04-12T16:53:29.726Z,2.27
2023-04-12T16:55:59.677Z,1.83
2023-04-12T16:58:28.805Z,1.47
2023-04-12T17:00:57.712Z,1.23
2023-04-12T17:03:25.472Z,1.30
2023-04-12T17:05:53.052Z,0.97
2023-04-12T17:08:20.835Z,2.60
2023-04-12T17:10:48.260Z,1.10
2023-04-12T17:13:18.074Z,2.00
2023-04-12T17:15:49.230Z,2.33
2023-04-12T17:18:16.761Z,5.10
2023-04-12T17:20:44.794Z,1.60
2023-04-12T17:23:13.522Z,1.50
2023-04-12T17:25:41.902Z,4.83
2023-04-12T17:28:09.676Z,1.93
2023-04-12T17:30:37.266Z,1.70
2023-04-12T17:33:07.716Z,1.83
2023-04-12T17:35:35.715Z,2.20
2023-04-12T17:38:03.182Z,1.90
2023-04-12T17:40:30.813Z,7.80
2023-04-12T17:42:58.189Z,2.93
2023-04-12T17:45:25.903Z,5.87
2023-04-12T17:47:54.631Z,7.67
2023-04-12T17:50:23.614Z,6.07
2023-04-12T17:52:51.157Z,6.83
2023-04-12T17:55:23.397Z,6.93
2023-04-12T17:57:50.912Z,8.87
2023-04-12T18:00:19.242Z,8.43
2023-04-12T18:02:47.050Z,4.20
2023-04-12T18:05:15.410Z,2.93
2023-04-12T18:07:44.766Z,2.70
2023-04-12T18:10:18.328Z,2.90
2023-04-12T18:12:47.994Z,3.33
2023-04-12T18:15:15.777Z,3.70
2023-04-12T18:17:43.543Z,4.13
2023-04-12T18:20:12.874Z,1.97
2023-04-12T18:22:40.529Z,1.90
2023-04-12T18:25:10.202Z,1.40
2023-04-12T18:27:37.711Z,2.20
2023-04-12T18:30:05.526Z,4.03
2023-04-12T18:32:33.108Z,2.03
2023-04-12T18:35:00.601Z,2.00
2023-04-12T18:37:28.122Z,2.33
2023-04-12T18:39:55.676Z,6.70
2023-04-12T18:42:24.482Z,4.23
2023-04-12T18:44:52.141Z,4.20
2023-04-12T18:47:20.110Z,6.23
2023-04-12T18:49:48.154Z,5.00
2023-04-12T18:52:15.772Z,5.30
2023-04-12T18:54:43.267Z,6.13
2023-04-12T18:57:10.683Z,5.00
2023-04-12T18:59:39.589Z,3.40
2023-04-12T19:02:07.904Z,2.77
2023-04-12T19:04:35.959Z,3.50
2023-04-12T19:07:03.421Z,3.20
2023-04-12T19:09:30.841Z,7.53
2023-04-12T19:11:58.273Z,8.60
2023-04-12T19:14:28.084Z,12.17
2023-04-12T19:16:57.352Z,9.63
2023-04-12T19:19:24.891Z,6.30
2023-04-12T19:21:52.325Z,5.87
2023-04-12T19:24:19.708Z,8.13
2023-04-12T19:26:48.029Z,4.77
2023-04-12T19:29:16.007Z,5.10
2023-04-12T19:31:47.161Z,6.80
2023-04-12T19:34:17.908Z,6.87
2023-04-12T19:36:45.693Z,6.13
2023-04-12T19:39:13.213Z,5.13
2023-04-12T19:41:40.710Z,4.20
2023-04-12T19:44:08.202Z,5.10
2023-04-12T19:46:38.634Z,5.80
2023-04-12T19:49:06.189Z,4.93
2023-04-12T19:51:35.001Z,5.47
2023-04-12T19:54:02.841Z,4.20
2023-04-12T19:56:31.404Z,3.87
2023-04-12T19:58:59.905Z,3.63
2023-04-12T20:01:27.708Z,3.60
2023-04-12T20:03:55.220Z,3.67
2023-04-12T20:06:23.209Z,2.67
2023-04-12T20:08:52.037Z,3.70
2023-04-12T20:11:21.444Z,4.10
2023-04-12T20:13:48.884Z,3.13
2023-04-12T20:16:16.435Z,3.00
2023-04-12T20:18:43.883Z,2.67
2023-04-12T20:21:11.463Z,2.47
2023-04-12T20:23:38.935Z,3.93
2023-04-12T20:26:08.776Z,7.70
2023-04-12T20:28:37.579Z,4.60
2023-04-12T20:31:06.015Z,2.70
2023-04-12T20:33:33.644Z,3.77
2023-04-12T20:36:01.251Z,2.90
2023-04-12T20:38:29.994Z,3.20
2023-04-12T20:40:57.959Z,3.73
2023-04-12T20:43:27.120Z,2.97
2023-04-12T20:45:55.074Z,2.43
2023-04-12T20:48:22.536Z,2.60
2023-04-12T20:50:50.378Z,2.40
2023-04-12T20:53:17.843Z,2.67
2023-04-12T20:55:45.541Z,2.40
2023-04-12T20:58:13.138Z,2.50
2023-04-12T21:00:42.078Z,2.37
2023-04-12T21:03:10.764Z,3.37
2023-04-12T21:05:38.463Z,2.80
2023-04-12T21:08:07.435Z,2.10
2023-04-12T21:10:34.859Z,1.90
2023-04-12T21:13:02.832Z,3.03
2023-04-12T21:15:31.786Z,1.70
2023-04-12T21:18:00.623Z,1.97
2023-04-12T21:20:30.306Z,5.13
2023-04-12T21:22:57.800Z,2.00
2023-04-12T21:25:26.234Z,2.83
2023-04-12T21:27:53.953Z,2.23
2023-04-12T21:30:21.486Z,2.97
2023-04-12T21:32:49.084Z,1.27
2023-04-12T21:35:18.236Z,1.37
2023-04-12T21:37:45.926Z,1.30
2023-04-12T21:40:13.480Z,0.97
2023-04-12T21:42:41.184Z,2.70
2023-04-12T21:45:09.718Z,0.80
2023-04-12T21:47:37.957Z,1.27
2023-04-12T21:50:07.559Z,2.80
2023-04-12T21:52:36.612Z,0.80
2023-04-12T21:55:04.843Z,0.83
2023-04-12T21:57:32.563Z,1.47
2023-04-12T21:59:59.982Z,1.13
2023-04-12T22:02:27.768Z,0.70
2023-04-12T22:04:55.314Z,1.90
2023-04-12T22:07:22.719Z,2.07
2023-04-12T22:09:53.454Z,1.20
2023-04-12T22:12:21.725Z,0.97
2023-04-12T22:14:50.002Z,0.90
2023-04-12T22:17:18.192Z,1.23
2023-04-12T22:19:45.845Z,1.00
2023-04-12T22:22:14.255Z,0.70
2023-04-12T22:24:41.896Z,0.97
2023-04-12T22:27:10.734Z,0.80
2023-04-12T22:29:38.530Z,0.80
2023-04-12T22:32:06.457Z,1.00
2023-04-12T22:34:34.495Z,0.80
2023-04-12T22:37:03.393Z,0.80
2023-04-12T22:39:31.763Z,0.80
2023-04-12T22:41:59.422Z,0.70
2023-04-12T22:44:29.124Z,0.60
2023-04-12T22:46:57.236Z,0.67
2023-04-12T22:49:27.966Z,0.70
2023-04-12T22:51:55.427Z,3.20
2023-04-12T22:54:23.302Z,2.40
2023-04-12T22:56:50.794Z,1.60
2023-04-12T22:59:18.696Z,0.80
2023-04-12T23:01:48.356Z,0.60
2023-04-12T23:04:16.923Z,1.60
2023-04-12T23:06:45.025Z,1.93
2023-04-12T23:09:13.081Z,0.80
2023-04-12T23:11:41.095Z,0.70
2023-04-12T23:14:09.328Z,1.60
2023-04-12T23:16:42.267Z,0.77
2023-04-12T23:19:12.090Z,0.80
2023-04-12T23:21:40.357Z,0.73
2023-04-12T23:24:08.130Z,0.87
2023-04-12T23:26:35.963Z,1.43
2023-04-12T23:29:04.535Z,0.90
2023-04-12T23:31:32.984Z,2.30
2023-04-12T23:34:02.464Z,0.80
2023-04-12T23:36:31.378Z,1.53
2023-04-12T23:39:00.330Z,1.90
2023-04-12T23:41:31.606Z,0.77
2023-04-12T23:44:00.007Z,0.80
2023-04-12T23:46:27.879Z,1.90
2023-04-12T23:48:55.414Z,1.03
2023-04-12T23:51:23.340Z,0.80
2023-04-12T23:53:52.244Z,2.30
2023-04-12T23:56:19.982Z,0.80
2023-04-12T23:58:47.724Z,1.87
